Weather observations for the past three days for
Astronaut Kent Rominger - Del Norte
Metric (Imperial)
Date Time (mdt) Wind (kph) Vis. (km) Weather Sky Cond. Temperature (ºC) Relative Humidity Wind Chill (°C) Heat Index (°C) Pressure Precipitation (cm)
Air Dwpt 6 hour altimeter (cm) sea level (mb) 1 hr 3 hr 6 hr
Max. Min.
08 06:15 W 19 16.09 Fair CLR 4.6 -5 50% 1 76.56 0.0
08 05:55 W 15 16.09 Fair CLR 4.7 -5.1 9.8 4.5 49% 2 76.53 0.0
08 05:35 W 15 16.09 Fair CLR 4.5 -5.1 50% 2 76.53 0.0
08 05:15 W 15 16.09 Fair CLR 5.5 -5 47% 3 76.53 0.0
08 04:55 W 17 16.09 Fair CLR 5.8 -5 46% 3 76.53 0.0
08 04:35 SW 15 16.09 Partly Cloudy SCT100 6.3 -5 45% 4 76.53 0.0
08 04:15 W 15 16.09 Overcast OVC100 5.9 -4.9 46% 3 76.53 0.0
08 03:55 W 13 16.09 Partly Cloudy SCT100 5.7 -5.1 46% 3 76.53 0.0
08 03:35 W 13 16.09 Mostly Cloudy BKN100 6.9 -5.1 42% 5 76.53 0.0
08 03:15 W 20 16.09 Partly Cloudy SCT100 6.7 -5.3 42% 3 76.56 0.0
08 02:55 W 19 16.09 Partly Cloudy SCT110 5.6 -4.5 49% 2 76.53 0.0
08 02:35 W 13 16.09 Mostly Cloudy BKN110 7.7 -4.5 42% 6 76.56 0.0
08 02:15 W 7 16.09 Overcast SCT060 SCT070 OVC110 8.5 -5 38% 8 76.58 0.0
08 01:55 NW 13 16.09 Overcast OVC100 8.9 -5.5 36% 7 76.58 0.0
08 01:35 W 17 16.09 Overcast OVC100 8.6 -5.4 37% 6 76.58 0.0
08 01:15 W 13 16.09 Overcast OVC100 8.3 -5.1 39% 6 76.58 0.0
08 00:55 W 15 16.09 Overcast OVC110 9.2 -6 34% 7 76.56 0.0
08 00:35 NW 13 16.09 Overcast OVC110 9.2 -6 34% 7 76.58 0.0
08 00:15 W 6 16.09 Overcast OVC110 9.4 -5.8 34% 76.56 0.0
07 23:55 W 11 16.09 Overcast OVC110 9.8 -6 15.7 6.7 33% 8 76.56 0.0
07 23:35 W 13 16.09 Overcast OVC110 9.5 -6.7 32% 8 76.56 0.0
07 23:15 W 17 16.09 Overcast OVC110 10.1 -6.7 30% 76.58 0.0
07 22:55 NW 9 16.09 Mostly Cloudy BKN120 7.4 -7.4 34% 6 76.56 0.0
07 22:35 W 11 16.09 Partly Cloudy SCT120 8 -8.1 31% 6 76.58 0.0
07 22:15 W 9 16.09 Fair CLR 8.3 -7.9 31% 7 76.58 0.0
07 21:55 W 13 16.09 Fair CLR 10.3 -7.5 28% 76.58 0.0
07 21:35 W 15 16.09 Fair CLR 10.5 -7.3 28% 76.56 0.0
07 21:15 W 15 16.09 Fair CLR 10.2 -7.5 28% 76.56 0.0
07 20:55 W 13 16.09 Fair CLR 11.6 -7.4 26% 76.5 0.0
07 20:35 W 13 16.09 Partly Cloudy SCT120 11.7 -7.1 26% 76.48 0.0
07 20:15 NW 11 16.09 Partly Cloudy SCT120 12.6 -7 25% 76.48 0.0
07 19:55 W 7 16.09 Partly Cloudy SCT100 SCT120 14.2 -6 24% 76.45 0.0
07 19:35 Calm 16.09 Overcast OVC100 15 -5.5 24% 76.43 0.0
07 19:15 S 7 16.09 Overcast OVC100 15.6 -5.5 23% 76.43 0.0
07 18:55 E 6 16.09 Overcast SCT090 OVC110 15 -4.6 26% 76.43 0.0
07 18:35 SE 9 16.09 Overcast OVC110 15.3 -5.2 24% 76.43 0.0
07 18:15 SE 13 16.09 Overcast OVC110 15.4 -5.4 24% 76.43 0.0
07 17:55 SE 11 16.09 Overcast OVC110 15.6 -5.6 17.8 9.1 23% 76.43 0.0
07 17:35 SE 13 16.09 Mostly Cloudy BKN110 15.6 -5.6 23% 76.4 0.0
07 17:15 SE 15 16.09 Partly Cloudy SCT120 15.7 -6.2 22% 76.43 0.0
07 16:55 E 15 16.09 Partly Cloudy SCT120 16.2 -6.4 21% 76.4 0.0
07 16:35 SE 17 G 26 16.09 Mostly Cloudy BKN110 16.2 -6.2 21% 76.43 0.0
07 16:15 SE 19 16.09 Mostly Cloudy BKN110 16.4 -6.3 21% 76.43 0.0
07 15:55 SE 17 16.09 Fair CLR 17.8 -5.9 19% 76.43 0.0
07 15:35 S 11 16.09 Fair CLR 16.2 -6.4 21% 76.45 0.0
07 15:15 E 7 16.09 Fair CLR 16.5 -6 21% 76.48 0.0
07 14:55 E 15 16.09 Fair CLR 15.5 -6.6 21% 76.53 0.0
07 14:35 SE 9 16.09 Fair CLR 15 -6.3 23% 76.56 0.0
07 14:15 SE 13 16.09 Fair CLR 14.6 -5.8 24% 76.58 0.0
07 13:55 SE 7 16.09 Fair CLR 13.1 -6.4 25% 76.63 0.0
07 13:35 E 11 16.09 Fair CLR 13.3 -6.2 25% 76.66 0.0
07 13:15 SE 9 16.09 Fair CLR 11.9 -6.7 27% 76.68 0.0
07 12:55 E 7 16.09 Fair CLR 11.6 -7 27% 76.71 0.0
07 12:35 E 9 16.09 Fair CLR 10.7 -6.7 29% 76.73 0.0
07 12:15 E 13 16.09 Fair CLR 10.2 -6.6 30% 76.76 0.0
07 11:55 SE 15 16.09 Fair CLR 8.8 -8.2 9.5 -7.9 29% 7 76.76 0.0
07 11:35 E 7 16.09 Fair CLR 9.5 -7.7 29% 9 76.78 0.0
07 11:15 SE 11 16.09 Fair CLR 7.8 -7.8 33% 6 76.81 0.0
07 10:55 E 9 16.09 Fair CLR 7.8 -7.4 34% 6 76.81 0.0
07 10:35 E 9 16.09 Fair CLR 7.1 -6.7 37% 6 76.84 0.0
07 10:15 E 9 16.09 Fair CLR 6 -6.6 40% 4 76.86 0.0
07 09:55 E 7 16.09 Fair CLR 5.2 -6.9 42% 4 76.86 0.0
07 09:35 E 11 16.09 Fair CLR 4.7 -6.8 43% 2 76.89 0.0
07 09:15 Calm 16.09 Fair CLR 3.6 -8 43% 76.89 0.0
07 08:55 SE 7 16.09 Fair CLR 3.3 -8.5 42% 2 76.91 0.0
07 08:35 Calm 16.09 Fair CLR 2.2 -9.4 42% 76.91 0.0
07 08:15 W 7 16.09 Fair CLR 1.8 -9.9 42% -0 76.91 0.0
07 07:55 W 17 16.09 Fair CLR 1.1 -10 44% -3 76.91 0.0
07 07:35 W 7 16.09 Fair CLR 0 -10.6 45% -2 76.91 0.0
07 07:15 W 9 16.09 Fair CLR -2.6 -11.2 52% -6 76.89 0.0
07 06:55 SW 13 16.09 Fair CLR -3.4 -11.4 54% -8 76.86 0.0
07 06:35 W 11 16.09 Fair CLR -4.6 -11.4 59% -9 76.86 0.0
07 06:15 W 9 16.09 Fair CLR -6.8 -12.9 62% -11 76.86 0.0
07 05:55 W 15 16.09 Fair CLR -4.8 -11.6 -1.5 -6.4 59% -10 76.84 0.0
07 05:35 W 9 16.09 Fair CLR -5.4 -11.7 62% -9 76.84 0.0
07 05:15 W 11 16.09 Fair CLR -5 -11.8 59% -9 76.81 0.0
07 04:55 W 15 16.09 Fair CLR -2.5 -11.1 52% -7 76.81 0.0
07 04:35 W 17 16.09 Fair CLR -1.7 -10.7 51% -6 76.84 0.0
07 04:15 W 17 16.09 Fair CLR -2.2 -10.5 53% -7 76.81 0.0
07 03:55 W 19 16.09 Fair CLR -2.7 -9.8 59% -8 76.84 0.0
07 03:35 W 20 16.09 Fair CLR -2.5 -10.3 55% -8 76.84 0.0
07 03:15 W 15 16.09 Fair CLR -4.1 -10.1 63% -9 76.84 0.0
07 02:55 W 13 16.09 Fair CLR -2.7 -9.9 58% -7 76.81 0.0
07 02:35 W 9 16.09 Fair CLR -2.7 -9.5 60% -6 76.81 0.0
07 02:15 W 17 16.09 Fair CLR -3.4 -9.7 62% -8 76.78 0.0
07 01:55 W 11 16.09 Fair CLR -3.8 -10.1 62% -8 76.81 0.0
07 01:15 W 11 16.09 Fair CLR -4.3 -9.7 66% -8 76.84 0.0
07 00:55 Calm 16.09 Fair CLR -2.1 -9.3 58% 76.84 0.0
07 00:35 W 11 16.09 Fair CLR -2.7 -9.6 59% -6 76.81 0.0
07 00:15 W 9 16.09 Fair CLR -2.6 -8.6 64% -6 76.81 0.0
06 23:55 W 15 16.09 Fair CLR -2.1 -8.2 8.1 -2.8 63% -7 76.78 0.0
06 23:35 SW 9 16.09 Fair CLR -1.9 -9 59% -5 76.76 0.0
06 23:15 W 9 16.09 Fair CLR -2.6 -8.3 65% -6 76.76 0.0
06 22:55 W 9 16.09 Fair CLR 0.3 -8.4 52% -2 76.73 0.0
06 22:35 SW 9 16.09 Fair CLR -0.2 -8.4 54% -3 76.73 0.0
06 22:15 Calm 16.09 Fair CLR 0.8 -7.4 55% 76.71 0.0
06 21:55 Calm 16.09 Fair CLR -0.1 -3.8 76% 76.71 0.0
06 21:35 Calm 16.09 Fair CLR -1 -3 86% 76.68 0.0
06 21:15 Calm 16.09 Fair CLR -0.7 -3.6 81% 76.66 0.0
06 20:55 Calm 16.09 Fair CLR 0.9 -1.9 82% 76.63 0.0
06 20:35 SE 6 16.09 Fair CLR 2.1 -1 80% 76.63 0.0
06 20:15 SE 7 16.09 Partly Cloudy SCT036 2.9 -1 76% 1 76.58 0.0
06 19:55 SE 11 16.09 Overcast BKN028 OVC036 3.7 -1.2 71% 1 76.58 0.0
06 19:35 SE 19 16.09 Overcast BKN028 BKN036 OVC080 5.1 -0.8 66% 2 76.53 0.0
06 19:15 E 7 16.09 Mostly Cloudy SCT030 SCT038 BKN080 6 -1.3 60% 5 76.48 0.0
06 18:55 N 19 G 31 16.09 Partly Cloudy SCT038 SCT048 SCT080 7.9 -9.8 28% 5 76.43 0.0
06 18:35 Calm 16.09 Mostly Cloudy SCT038 SCT048 BKN075 7 -2.2 52% 76.43 0.0
06 18:15 S 11 16.09 Mostly Cloudy SCT060 BKN080 6.8 -1.6 55% 5 76.4 0.0
06 17:55 SE 11 16.09 Mostly Cloudy SCT070 BKN080 6.5 -1.2 7.3 1.6 58% 5 76.38 0.0
06 17:35 S 7 16.09 Mostly Cloudy BKN080 5.8 -1.4 60% 5 76.38 0.0
06 17:15 E 15 16.09 Partly Cloudy SCT027 SCT034 6.4 -1 60% 4 76.33 0.0
06 16:55 SE 9 16.09 Partly Cloudy SCT029 SCT034 SCT085 6.9 -0.8 58% 5 76.33 0.0
06 16:35 SE 13 16.09 Partly Cloudy SCT070 SCT080 6.2 -1 60% 4 76.28 0.0
06 16:15 E 13 16.09 Overcast SCT014 BKN065 OVC085 5.5 -0.2 67% 3 76.28 0.0
06 15:55 E 13 16.09 Overcast SCT014 BKN070 OVC085 4.8 0.2 72% 2 76.28 0.0
06 15:35 E 15 16.09 Mostly Cloudy SCT010 BKN070 BKN085 5.1 1 75% 2 76.28 0.0
06 15:15 E 11 16.09 Overcast BKN008 BKN030 OVC070 3.8 0.4 79% 1 76.28 0.0
06 14:50 E 19 16.09 Light Drizzle SCT014 BKN033 OVC060 3 1 87% -1 76.25 0.0
06 14:35 E 15 16.09 Drizzle SCT016 BKN041 OVC060 3.8 0.5 79% 1 76.25 0.0
06 14:15 E 15 16.09 Overcast SCT037 SCT048 OVC060 4.1 0.2 76% 1 76.25 0.0
06 13:55 E 17 16.09 Overcast SCT039 OVC048 3.8 0.1 77% 0 76.2 0.0
06 13:35 E 22 16.09 Thunderstorm in Vicinity SCT025 BKN050 OVC060 4.5 1.3 80% 1 76.15 0.0
06 13:15 S 7 16.09 Overcast SCT026 SCT031 OVC090 4.9 -0.1 70% 3 76.17 0.0
06 12:55 S 11 16.09 Mostly Cloudy SCT013 SCT022 BKN070 4.1 0.6 78% 2 76.17 0.0
06 12:35 S 11 11.27 Light Snow SCT013 BKN025 OVC048 2.4 0.2 86% -0 76.23 0.0
06 12:15 SW 17 16.09 Overcast SCT010 BKN033 OVC047 1.8 0.5 91% -2 76.23 0.0
06 11:55 SE 6 16.09 Light Snow SCT008 BKN030 OVC047 1.5 -0.2 9.5 0.3 89% 76.17 0.0
06 11:35 W 22 G 37 0.80 Light Snow BKN006 OVC010 0.8 -0.6 90% -4 76.15 0.0
06 11:15 NW 31 G 50 11.27 Light Snow SCT031 BKN037 OVC048 4 -1.5 68% -1 76.1 0.0
06 10:55 NW 20 G 46 16.09 Thunderstorm Rain in Vicinity SCT027 BKN050 OVC060 6.3 -0.6 62% 3 76.02 0.0
06 10:35 W 30 G 41 16.09 Overcast BKN050 OVC065 9.1 -4.9 37% 6 75.97 0.0
06 10:15 S 17 16.09 Overcast OVC050 8.4 -2.5 47% 6 75.95 0.0
06 09:55 Calm 16.09 Overcast SCT038 SCT043 OVC060 7.8 -2.5 48% 75.97 0.0
06 09:15 E 7 16.09 Overcast SCT026 BKN047 OVC070 6.9 -0.5 60% 6 76 0.0
06 08:55 E 13 16.09 Mostly Cloudy SCT040 SCT046 BKN075 6 -0.2 65% 4 76.02 0.0
06 08:35 E 11 16.09 Overcast SCT034 BKN046 OVC075 4.4 -0.5 71% 2 76.05 0.0
06 08:15 E 13 16.09 Mostly Cloudy SCT038 BKN046 BKN090 4.1 -0.9 70% 1 76.05 0.0
06 07:55 E 15 16.09 Partly Cloudy SCT049 SCT100 4.4 -0.8 69% 1 76.02 0.0
06 07:35 E 11 16.09 Partly Cloudy SCT100 2.9 -1.5 73% 0 76.02 0.0
06 07:15 Calm 16.09 Partly Cloudy SCT060 SCT100 1.2 -2.1 79% 76.02 0.0
06 06:55 Calm 16.09 Overcast OVC060 1 -2.4 78% 76 0.0
06 06:35 Calm 16.09 Mostly Cloudy SCT070 BKN085 0.4 -2.5 81% 75.97 0.0
06 06:15 Calm 16.09 Mostly Cloudy BKN085 2.1 -4.2 63% 75.95 0.0
06 05:55 W 6 16.09 Fair CLR 2.5 -4 5.5 0.6 63% 75.95 0.0
06 05:35 W 9 16.09 Partly Cloudy SCT095 2.7 -4 62% 0 75.92 0.0
06 05:15 SW 11 16.09 Partly Cloudy SCT095 SCT120 2.1 -3.9 65% -1 75.92 0.0
06 04:55 SW 7 16.09 Partly Cloudy SCT120 1.3 -4.1 68% -1 75.92 0.0
06 04:35 SW 9 16.09 Fair CLR 1.7 -4.2 65% -1 75.92 0.0
06 04:15 SW 11 16.09 Fair CLR 2.7 -3.5 64% 0 75.92 0.0
06 03:55 SW 7 16.09 Fair CLR 2.7 -3.3 65% 1 75.92 0.0
06 03:35 W 11 16.09 Fair CLR 1.2 -3.7 70% -2 75.92 0.0
06 03:15 SW 11 16.09 Fair CLR 3.2 -3.2 63% 1 75.92 0.0
06 02:55 SW 15 16.09 Partly Cloudy SCT120 3 -3.4 63% -0 75.92 0.0
06 02:35 SW 11 16.09 Partly Cloudy SCT120 3.2 -2.8 65% 1 75.95 0.0
06 02:15 SW 19 16.09 Fair CLR 3.9 -3.5 59% 0 75.95 0.0
06 01:55 SW 20 16.09 Fair CLR 4.1 -3.1 60% 0 75.97 0.0
06 01:35 W 22 16.09 Fair CLR 5.2 -3.5 54% 1 75.95 0.0
06 01:15 W 22 G 31 16.09 Partly Cloudy SCT120 5.2 -3.5 54% 1 75.97 0.0
06 00:55 W 17 G 26 16.09 Mostly Cloudy BKN120 4.9 -3.2 56% 2 75.97 0.0
06 00:35 SW 24 16.09 Overcast OVC100 4.6 -2.5 60% 0 75.97 0.0
06 00:15 SW 22 G 31 16.09 Overcast SCT080 OVC100 4.2 -1.6 66% 0 75.97 0.0
05 23:55 SW 22 16.09 Overcast SCT090 OVC110 4.5 -1.9 13.1 4 64% 1 75.95 0.0
05 23:15 SW 22 16.09 Partly Cloudy SCT120 4.3 -1.5 66% 0 75.95 0.0
05 22:55 SW 24 G 30 16.09 Fair CLR 4.2 -1.5 67% -0 75.95 0.0
05 22:35 SW 20 G 26 16.09 Partly Cloudy SCT120 4.6 -2.3 61% 1 75.92 0.0
05 22:15 SW 22 G 28 16.09 Partly Cloudy SCT120 4.5 -1.9 64% 1 75.95 0.0
05 21:55 SW 17 G 37 16.09 Mostly Cloudy SCT070 BKN120 5.2 -1.5 62% 2 75.95 0.0
05 21:35 SW 17 16.09 Partly Cloudy SCT070 SCT080 SCT110 5.9 -1 62% 3 75.95 0.0
05 21:15 SW 15 16.09 Partly Cloudy SCT110 5.6 -1.2 62% 3 75.92 0.0
05 20:55 S 9 16.09 Mostly Cloudy SCT070 SCT080 BKN110 5.7 -1.6 60% 4 75.87 0.0
05 20:35 SW 7 16.09 Overcast BKN070 OVC080 7.2 -3 49% 6 75.9 0.0
05 20:15 W 15 G 30 16.09 Mostly Cloudy BKN090 BKN120 7.6 -2.9 48% 5 75.84 0.0
05 19:55 SW 7 16.09 Partly Cloudy SCT120 8.5 -4.3 40% 8 75.82 0.0
05 19:35 SW 20 G 35 16.09 Fair CLR 8.8 -3.1 43% 6 75.74 0.0
05 19:15 W 35 G 46 16.09 Thunderstorm in Vicinity and Breezy SCT050 9.2 -3.6 41% 6 75.69 0.0
05 18:55 W 37 G 63 16.09 Fair and Breezy CLR 8.1 -2.7 47% 4 75.72 0.0
05 18:35 W 41 G 50 16.09 Fair and Breezy CLR 11.6 -6.6 28% 75.67 0.0
05 18:15 W 31 G 46 16.09 Fair CLR 12 -6.7 27% 75.67 0.0
05 17:55 SW 41 G 52 16.09 Fair and Breezy CLR 13.2 -7 16.6 12.3 24% 75.64 0.0
05 17:35 SW 28 G 44 16.09 Partly Cloudy SCT080 14.7 -7 22% 75.62 0.0
05 17:15 W 31 G 44 16.09 Mostly Cloudy BKN080 14.9 -6.3 23% 75.64 0.0
05 16:55 W 31 G 46 16.09 Mostly Cloudy BKN090 14.8 -5.8 24% 75.64 0.0
05 16:35 W 37 G 57 16.09 Fair and Breezy CLR 12.3 -5.8 28% 75.67 0.0
05 16:15 SW 46 G 63 16.09 Fair and Windy CLR 13.1 -6.1 26% 75.64 0.0
05 15:55 SW 39 G 52 16.09 Fair and Breezy CLR 13.2 -6.9 24% 75.67 0.0
05 15:35 W 39 G 50 16.09 Fair and Breezy CLR 14.8 -6.7 22% 75.67 0.0
05 15:15 W 39 G 56 16.09 Fair and Breezy CLR 15.9 -6.9 20% 75.64 0.0
05 14:55 W 46 G 59 16.09 Fair and Windy CLR 16.5 -8.3 18% 75.67 0.0
05 14:35 W 30 G 46 16.09 Fair CLR 16.3 -8.5 18% 75.67 0.0
05 14:15 W 26 G 35 16.09 Fair CLR 15.2 -8.2 19% 75.72 0.0
05 13:35 SW 20 G 28 16.09 Partly Cloudy SCT110 14.4 -10 18% 75.72 0.0
05 13:15 SW 19 G 28 16.09 Partly Cloudy SCT100 13.8 -9.3 19% 75.77 0.0
05 12:55 SW 17 G 26 16.09 Mostly Cloudy BKN100 13.8 -8.6 20% 75.79 0.0
05 12:35 W 7 16.09 Mostly Cloudy SCT085 BKN120 13.1 -6.1 26% 75.79 0.0
05 12:15 S 15 G 26 16.09 Mostly Cloudy SCT075 BKN120 12.6 -5.6 28% 75.82 0.0
05 11:55 E 15 G 26 16.09 Partly Cloudy SCT075 12.2 -5.7 12.8 5.4 28% 75.84 0.0
05 11:35 S 11 16.09 Partly Cloudy SCT075 SCT120 11.9 -5.3 30% 75.84 0.0
05 11:15 SE 11 16.09 Mostly Cloudy BKN075 BKN100 11.4 -6.6 28% 75.87 0.0
05 10:55 W 15 16.09 Mostly Cloudy SCT100 BKN120 11.3 -6.3 29% 75.9 0.0
05 10:35 W 15 16.09 Overcast OVC120 10.6 -6.5 30% 75.9 0.0
05 10:15 W 17 16.09 Mostly Cloudy BKN120 10.2 -6.6 30% 75.92 0.0
05 09:55 W 17 16.09 Mostly Cloudy SCT080 BKN110 9.8 -6.7 31% 8 75.92 0.0
05 09:35 SW 20 16.09 Overcast SCT080 OVC110 9 -7 32% 6 75.95 0.0
05 09:15 SW 19 16.09 Overcast BKN080 OVC110 8.7 -7.2 32% 6 75.97 0.0
05 08:55 W 26 16.09 Overcast SCT080 OVC110 8.3 -7.5 32% 5 75.97 0.0
05 08:35 W 26 16.09 Mostly Cloudy SCT080 BKN120 8.3 -7.2 33% 5 75.97 0.0
05 08:15 W 26 G 31 16.09 Fair CLR 7.7 -7.2 34% 4 76 0.0
05 07:55 W 26 16.09 Fair CLR 7 -7.4 35% 3 76.02 0.0
05 07:35 W 30 16.09 Fair CLR 7 -8 34% 3 76.02 0.0
05 07:15 W 28 16.09 Fair CLR 6.6 -8.4 34% 3 76.02 0.0
05 06:55 W 26 G 35 16.09 Fair CLR 6.2 -8.5 34% 2 76.02 0.0
Date Time (mdt) Wind (kph) Vis. (km) Weather Sky Cond. Air Dwpt Max. Min. Relative Humidity Wind Chill (°C) Heat Index (°C) altimeter (cm) sea level (mb) 1 hr 3 hr 6 hr
6 hour
Temperature (ºC) Pressure Precipitation (cm)